createdAt,value
2022-07-27T00:01:03.453Z,17.07
2022-07-27T00:03:51.611Z,17.11
2022-07-27T00:06:39.794Z,17.06
2022-07-27T00:09:27.820Z,17.02
2022-07-27T00:12:15.888Z,16.99
2022-07-27T00:15:05.796Z,16.97
2022-07-27T00:17:53.834Z,16.88
2022-07-27T00:20:42.295Z,16.89
2022-07-27T00:23:30.311Z,16.78
2022-07-27T00:26:18.355Z,16.72
2022-07-27T00:29:06.350Z,16.71
2022-07-27T00:31:55.755Z,16.66
2022-07-27T00:34:43.785Z,16.61
2022-07-27T00:37:31.768Z,16.59
2022-07-27T00:40:19.939Z,16.56
2022-07-27T00:43:07.955Z,16.59
2022-07-27T00:45:56.012Z,16.70
2022-07-27T00:48:45.499Z,16.76
2022-07-27T00:51:33.709Z,16.85
2022-07-27T00:54:22.903Z,16.86
2022-07-27T00:57:12.094Z,16.89
2022-07-27T01:00:00.936Z,16.92
2022-07-27T01:02:49.050Z,16.98
2022-07-27T01:05:43.394Z,16.96
2022-07-27T01:08:32.377Z,16.96
2022-07-27T01:11:20.664Z,16.96
2022-07-27T01:14:08.921Z,16.88
2022-07-27T01:16:56.879Z,16.97
2022-07-27T01:19:45.789Z,16.97
2022-07-27T01:22:35.441Z,17.07
2022-07-27T01:25:23.614Z,17.11
2022-07-27T01:28:11.602Z,17.13
2022-07-27T01:30:59.591Z,17.21
2022-07-27T01:33:47.713Z,17.23
2022-07-27T01:36:35.769Z,17.23
2022-07-27T01:39:25.106Z,17.26
2022-07-27T01:42:13.115Z,17.26
2022-07-27T01:45:01.129Z,17.17
2022-07-27T01:47:49.513Z,17.13
2022-07-27T01:50:37.807Z,17.32
2022-07-27T01:53:26.054Z,17.35
2022-07-27T01:56:15.429Z,17.34
2022-07-27T01:59:03.439Z,17.39
2022-07-27T02:01:51.570Z,17.38
2022-07-27T02:04:39.607Z,17.40
2022-07-27T02:07:27.656Z,17.42
2022-07-27T02:10:15.651Z,17.45
2022-07-27T02:13:15.314Z,17.47
2022-07-27T02:16:17.185Z,17.51
2022-07-27T02:19:06.250Z,17.52
2022-07-27T02:21:56.838Z,17.50
2022-07-27T02:24:44.991Z,17.36
2022-07-27T02:27:33.172Z,17.46
2022-07-27T02:30:22.582Z,17.46
2022-07-27T02:33:10.703Z,17.50
2022-07-27T02:35:59.654Z,17.56
2022-07-27T02:38:47.736Z,17.60
2022-07-27T02:41:35.663Z,17.70
2022-07-27T02:44:23.609Z,17.71
2022-07-27T02:47:12.971Z,17.70
2022-07-27T02:50:02.137Z,17.73
2022-07-27T02:52:50.120Z,17.78
2022-07-27T02:55:38.149Z,17.82
2022-07-27T02:58:26.095Z,17.82
2022-07-27T03:01:14.089Z,17.87
2022-07-27T03:04:03.478Z,17.82
2022-07-27T03:06:51.605Z,17.87
2022-07-27T03:09:39.624Z,17.83
2022-07-27T03:12:27.581Z,17.78
2022-07-27T03:15:15.706Z,17.71
2022-07-27T03:18:04.052Z,17.76
2022-07-27T03:20:53.466Z,17.78
2022-07-27T03:23:41.543Z,17.79
2022-07-27T03:26:30.490Z,17.81
2022-07-27T03:29:18.498Z,17.78
2022-07-27T03:32:07.233Z,17.78
2022-07-27T03:34:55.201Z,17.70
2022-07-27T03:37:44.580Z,17.57
2022-07-27T03:40:32.847Z,17.54
2022-07-27T03:43:21.028Z,17.56
2022-07-27T03:46:09.103Z,17.56
2022-07-27T03:48:57.581Z,17.58
2022-07-27T03:51:45.624Z,17.58
2022-07-27T03:54:34.965Z,17.56
2022-07-27T03:57:22.980Z,17.53
2022-07-27T04:00:12.425Z,17.56
2022-07-27T04:03:00.496Z,17.58
2022-07-27T04:05:48.612Z,17.56
2022-07-27T04:08:36.642Z,17.59
2022-07-27T04:11:29.101Z,17.58
2022-07-27T04:14:17.866Z,17.55
2022-07-27T04:17:06.116Z,17.61
2022-07-27T04:19:54.231Z,17.63
2022-07-27T04:22:42.345Z,17.62
2022-07-27T04:25:30.561Z,17.62
2022-07-27T04:28:19.977Z,17.68
2022-07-27T04:31:08.284Z,17.68
2022-07-27T04:33:56.574Z,17.72
2022-07-27T04:36:44.900Z,17.70
2022-07-27T04:39:32.826Z,17.69
2022-07-27T04:42:20.782Z,17.70
2022-07-27T04:45:11.045Z,17.79
2022-07-27T04:48:00.738Z,17.88
2022-07-27T04:50:48.756Z,17.96
2022-07-27T04:53:37.512Z,17.98
2022-07-27T04:56:42.060Z,18.02
2022-07-27T04:59:30.054Z,17.99
2022-07-27T05:02:19.447Z,18.05
2022-07-27T05:05:07.876Z,18.11
2022-07-27T05:07:55.927Z,18.19
2022-07-27T05:10:43.932Z,18.34
2022-07-27T05:13:32.033Z,18.42
2022-07-27T05:16:21.351Z,18.44
2022-07-27T05:19:12.936Z,18.55
2022-07-27T05:22:01.390Z,18.48
2022-07-27T05:24:49.398Z,18.72
2022-07-27T05:27:53.708Z,18.83
2022-07-27T05:30:42.771Z,18.94
2022-07-27T05:33:30.783Z,18.99
2022-07-27T05:36:20.081Z,18.68
2022-07-27T05:39:11.795Z,18.80
2022-07-27T05:42:02.021Z,18.93
2022-07-27T05:44:56.075Z,19.08
2022-07-27T05:47:44.184Z,19.16
2022-07-27T05:50:32.212Z,19.25
2022-07-27T05:53:21.603Z,19.44
2022-07-27T05:56:09.971Z,19.44
2022-07-27T05:58:58.058Z,19.60
2022-07-27T06:01:46.108Z,19.66
2022-07-27T06:04:34.124Z,19.62
2022-07-27T06:07:39.705Z,19.57
2022-07-27T06:10:30.985Z,19.32
2022-07-27T06:13:19.011Z,19.51
2022-07-27T06:16:07.491Z,19.75
2022-07-27T06:18:55.448Z,20.01
2022-07-27T06:21:43.387Z,20.02
2022-07-27T06:24:31.379Z,20.15
2022-07-27T06:27:20.804Z,20.33
2022-07-27T06:30:10.207Z,20.55
2022-07-27T06:32:59.087Z,20.50
2022-07-27T06:35:47.698Z,20.75
2022-07-27T06:38:36.172Z,20.91
2022-07-27T06:41:24.152Z,20.76
2022-07-27T06:44:13.580Z,21.02
2022-07-27T06:47:01.605Z,21.44
2022-07-27T06:49:49.820Z,21.54
2022-07-27T06:52:37.836Z,21.60
2022-07-27T06:55:25.899Z,21.80
2022-07-27T06:58:13.943Z,21.64
2022-07-27T07:01:03.713Z,21.82
2022-07-27T07:03:51.909Z,21.97
2022-07-27T07:06:40.044Z,21.74
2022-07-27T07:09:28.805Z,22.07
2022-07-27T07:12:18.183Z,22.36
2022-07-27T07:15:07.916Z,22.70
2022-07-27T07:17:57.327Z,22.48
2022-07-27T07:20:45.384Z,22.40
2022-07-27T07:23:33.546Z,21.79
2022-07-27T07:26:21.569Z,21.39
2022-07-27T07:29:10.361Z,21.15
2022-07-27T07:31:58.520Z,21.09
2022-07-27T07:34:47.862Z,20.91
2022-07-27T07:37:35.994Z,20.97
2022-07-27T07:43:31.982Z,21.18
2022-07-27T07:46:20.144Z,21.09
2022-07-27T07:49:08.665Z,21.11
2022-07-27T07:51:58.925Z,20.96
2022-07-27T07:54:47.028Z,20.88
2022-07-27T07:57:35.108Z,20.88
2022-07-27T08:00:24.136Z,20.96
2022-07-27T08:03:12.224Z,21.04
2022-07-27T08:06:00.276Z,21.77
2022-07-27T08:08:51.037Z,23.28
2022-07-27T08:11:39.042Z,24.31
2022-07-27T08:14:27.333Z,24.00
2022-07-27T08:17:17.020Z,23.96
2022-07-27T08:20:05.851Z,24.06
2022-07-27T08:22:54.965Z,23.63
2022-07-27T08:25:44.421Z,23.60
2022-07-27T08:28:36.819Z,23.21
2022-07-27T08:31:51.401Z,23.26
2022-07-27T08:34:33.535Z,22.96
2022-07-27T08:37:21.564Z,23.26
2022-07-27T08:43:25.267Z,23.70
2022-07-27T08:46:13.892Z,24.12
2022-07-27T08:49:03.143Z,23.84
2022-07-27T08:51:51.734Z,23.84
2022-07-27T08:54:41.309Z,23.45
2022-07-27T08:57:29.838Z,23.89
2022-07-27T09:00:20.798Z,24.23
2022-07-27T09:03:17.904Z,24.48
2022-07-27T09:06:07.363Z,23.96
2022-07-27T09:09:00.297Z,24.09
2022-07-27T09:12:08.114Z,23.75
2022-07-27T09:15:07.192Z,23.92
2022-07-27T09:17:56.515Z,24.09
2022-07-27T09:20:44.515Z,24.28
2022-07-27T09:23:32.579Z,24.22
2022-07-27T09:26:38.298Z,24.15
2022-07-27T09:29:35.343Z,24.90
2022-07-27T09:32:23.340Z,25.06
2022-07-27T09:35:20.803Z,25.18
2022-07-27T09:38:20.019Z,24.89
2022-07-27T09:41:08.293Z,24.37
2022-07-27T09:47:22.758Z,24.26
2022-07-27T09:50:19.691Z,24.03
2022-07-27T09:53:41.749Z,24.48
2022-07-27T09:56:28.363Z,24.41
2022-07-27T09:59:19.964Z,24.34
2022-07-27T10:02:08.651Z,23.99
2022-07-27T10:04:56.957Z,24.08
2022-07-27T10:07:46.377Z,24.07
2022-07-27T10:10:35.194Z,24.03
2022-07-27T10:13:23.963Z,23.97
2022-07-27T10:16:15.043Z,23.75
2022-07-27T10:19:11.769Z,23.75
2022-07-27T10:21:59.756Z,23.98
2022-07-27T10:24:59.732Z,24.05
2022-07-27T10:27:49.305Z,24.27
2022-07-27T10:30:37.405Z,24.32
2022-07-27T10:33:43.685Z,24.89
2022-07-27T10:36:51.943Z,25.37
2022-07-27T10:39:43.075Z,25.50
2022-07-27T10:42:32.556Z,24.97
2022-07-27T10:45:20.570Z,24.42
2022-07-27T10:48:08.682Z,24.54
2022-07-27T10:50:56.721Z,25.08
2022-07-27T10:56:55.830Z,26.28
2022-07-27T11:00:07.359Z,25.83
2022-07-27T11:02:57.228Z,25.65
2022-07-27T11:06:21.719Z,25.74
2022-07-27T11:09:52.529Z,25.60
2022-07-27T11:12:13.679Z,25.30
2022-07-27T11:15:04.678Z,24.92
2022-07-27T11:18:00.425Z,24.54
2022-07-27T11:20:49.910Z,24.87
2022-07-27T11:23:50.956Z,25.03
2022-07-27T11:26:42.213Z,24.96
2022-07-27T11:29:35.264Z,25.33
2022-07-27T11:32:35.947Z,25.97
2022-07-27T11:35:24.740Z,26.64
2022-07-27T11:38:12.845Z,27.56
2022-07-27T11:41:13.735Z,27.69
2022-07-27T11:44:08.929Z,27.51
2022-07-27T11:47:01.764Z,27.66
2022-07-27T11:49:52.040Z,26.91
2022-07-27T11:52:40.128Z,27.82
2022-07-27T11:55:28.126Z,27.17
2022-07-27T11:58:18.418Z,26.59
2022-07-27T12:01:06.450Z,26.50
2022-07-27T12:04:07.089Z,26.70
2022-07-27T12:07:06.563Z,26.40
2022-07-27T12:09:56.670Z,26.49
2022-07-27T12:12:50.142Z,26.93
2022-07-27T12:15:46.806Z,27.80
2022-07-27T12:18:42.420Z,28.09
2022-07-27T12:21:31.742Z,27.83
2022-07-27T12:24:32.829Z,28.00
2022-07-27T12:27:21.867Z,28.01
2022-07-27T12:30:13.040Z,27.28
2022-07-27T12:33:02.080Z,27.01
2022-07-27T12:35:50.111Z,27.61
2022-07-27T12:38:39.627Z,28.25
2022-07-27T12:41:31.633Z,27.50
2022-07-27T12:44:19.579Z,26.70
2022-07-27T12:47:27.922Z,26.28
2022-07-27T12:50:18.568Z,26.62
2022-07-27T12:53:07.377Z,26.89
2022-07-27T12:55:56.867Z,27.45
2022-07-27T12:59:00.693Z,27.76
2022-07-27T13:01:51.193Z,27.78
2022-07-27T13:04:40.105Z,28.04
2022-07-27T13:07:28.071Z,28.62
2022-07-27T13:10:18.747Z,28.18
2022-07-27T13:13:07.835Z,27.33
2022-07-27T13:15:57.298Z,27.68
2022-07-27T13:18:45.293Z,28.12
2022-07-27T13:21:33.309Z,29.07
2022-07-27T13:24:21.443Z,28.96
2022-07-27T13:27:09.439Z,29.02
2022-07-27T13:29:57.945Z,29.14
2022-07-27T13:32:47.914Z,29.30
2022-07-27T13:35:36.271Z,29.61
2022-07-27T13:38:24.482Z,29.63
2022-07-27T13:41:12.859Z,29.03
2022-07-27T13:44:00.905Z,29.00
2022-07-27T13:46:49.765Z,29.12
2022-07-27T13:49:39.101Z,28.49
2022-07-27T13:52:27.113Z,28.55
2022-07-27T13:55:15.606Z,28.34
2022-07-27T13:58:03.710Z,28.08
2022-07-27T14:00:51.878Z,27.89
2022-07-27T14:03:40.706Z,28.22
2022-07-27T14:06:30.332Z,27.83
2022-07-27T14:09:18.778Z,27.90
2022-07-27T14:12:07.070Z,27.96
2022-07-27T14:14:55.221Z,27.92
2022-07-27T14:17:43.354Z,28.10
2022-07-27T14:20:31.429Z,28.32
2022-07-27T14:23:20.929Z,27.97
2022-07-27T14:26:10.707Z,28.31
2022-07-27T14:28:58.710Z,28.08
2022-07-27T14:31:48.342Z,28.55
2022-07-27T14:34:37.531Z,28.65
2022-07-27T14:37:25.610Z,28.64
2022-07-27T14:40:15.627Z,28.42
2022-07-27T14:43:03.774Z,27.86
2022-07-27T14:45:51.970Z,27.45
2022-07-27T14:49:05.093Z,27.49
2022-07-27T14:51:47.998Z,27.18
2022-07-27T14:54:37.786Z,27.04
2022-07-27T14:57:27.537Z,26.92
2022-07-27T15:00:17.239Z,27.07
2022-07-27T15:03:06.031Z,27.07
2022-07-27T15:05:54.098Z,26.83
2022-07-27T15:08:42.212Z,26.99
2022-07-27T15:11:30.216Z,27.15
2022-07-27T15:14:19.621Z,26.59
2022-07-27T15:17:07.732Z,26.71
2022-07-27T15:19:55.727Z,26.65
2022-07-27T15:22:43.768Z,26.81
2022-07-27T15:25:31.797Z,26.42
2022-07-27T15:28:19.774Z,26.62
2022-07-27T15:31:09.598Z,27.03
2022-07-27T15:33:57.858Z,26.62
2022-07-27T15:36:51.639Z,26.93
2022-07-27T15:39:41.272Z,26.71
2022-07-27T15:42:29.251Z,27.04
2022-07-27T15:45:17.444Z,27.27
2022-07-27T15:48:08.537Z,27.06
2022-07-27T15:50:58.778Z,27.00
2022-07-27T15:53:46.976Z,26.71
2022-07-27T15:56:34.930Z,26.72
2022-07-27T15:59:22.955Z,26.95
2022-07-27T16:02:11.739Z,27.14
2022-07-27T16:05:02.487Z,26.93
2022-07-27T16:07:50.721Z,27.22
2022-07-27T16:10:39.844Z,27.41
2022-07-27T16:13:27.832Z,27.25
2022-07-27T16:16:25.859Z,27.34
2022-07-27T16:19:14.329Z,27.19
2022-07-27T16:22:04.528Z,27.26
2022-07-27T16:24:52.552Z,27.40
2022-07-27T16:27:40.594Z,27.49
2022-07-27T16:30:33.992Z,27.69
2022-07-27T16:33:26.121Z,27.67
2022-07-27T16:36:14.206Z,27.34
2022-07-27T16:39:04.766Z,27.27
2022-07-27T16:41:53.064Z,27.83
2022-07-27T16:44:41.459Z,28.83
2022-07-27T16:47:29.711Z,29.65
2022-07-27T16:50:18.451Z,30.99
2022-07-27T16:53:07.111Z,31.13
2022-07-27T16:55:57.890Z,31.67
2022-07-27T16:58:45.900Z,31.74
2022-07-27T17:01:34.050Z,32.10
2022-07-27T17:04:22.830Z,32.82
2022-07-27T17:07:12.701Z,32.97
2022-07-27T17:10:00.921Z,32.37
2022-07-27T17:12:52.931Z,32.19
2022-07-27T17:15:42.062Z,31.47
2022-07-27T17:18:32.237Z,31.77
2022-07-27T17:21:23.679Z,31.75
2022-07-27T17:24:11.714Z,30.36
2022-07-27T17:26:59.730Z,29.11
2022-07-27T17:29:49.181Z,27.31
2022-07-27T17:32:37.821Z,26.39
2022-07-27T17:35:25.850Z,25.70
2022-07-27T17:38:15.724Z,25.01
2022-07-27T17:41:05.143Z,24.62
2022-07-27T17:43:53.800Z,24.38
2022-07-27T17:46:43.250Z,24.20
2022-07-27T17:49:31.591Z,23.85
2022-07-27T17:52:19.673Z,23.70
2022-07-27T17:55:09.199Z,23.04
2022-07-27T17:57:57.184Z,23.23
2022-07-27T18:00:45.161Z,23.21
2022-07-27T18:03:34.796Z,23.07
2022-07-27T18:06:22.854Z,23.01
2022-07-27T18:09:11.537Z,22.89
2022-07-27T18:11:59.803Z,22.76
2022-07-27T18:15:02.521Z,22.62
2022-07-27T18:17:50.536Z,22.41
2022-07-27T18:20:40.036Z,22.27
2022-07-27T18:23:28.263Z,22.06
2022-07-27T18:26:16.271Z,21.92
2022-07-27T18:29:04.356Z,21.76
2022-07-27T18:31:52.372Z,20.98
2022-07-27T18:34:40.772Z,21.39
2022-07-27T18:37:30.143Z,21.25
2022-07-27T18:40:18.348Z,21.13
2022-07-27T18:43:07.750Z,20.95
2022-07-27T18:45:56.123Z,20.79
2022-07-27T18:48:44.320Z,20.66
2022-07-27T18:51:32.566Z,20.43
2022-07-27T18:54:22.925Z,20.40
2022-07-27T18:57:11.108Z,20.34
2022-07-27T18:59:59.106Z,20.14
2022-07-27T19:02:47.172Z,19.94
2022-07-27T19:05:41.293Z,19.77
2022-07-27T19:08:29.835Z,19.63
2022-07-27T19:11:19.488Z,19.50
2022-07-27T19:14:07.948Z,19.44
2022-07-27T19:16:56.500Z,19.32
2022-07-27T19:19:44.596Z,19.22
2022-07-27T19:22:32.587Z,19.12
2022-07-27T19:25:21.895Z,18.93
2022-07-27T19:28:11.315Z,18.76
2022-07-27T19:30:59.409Z,18.62
2022-07-27T19:33:47.419Z,18.47
2022-07-27T19:36:35.410Z,18.40
2022-07-27T19:39:23.437Z,18.25
2022-07-27T19:42:11.446Z,18.18
2022-07-27T19:45:01.031Z,17.90
2022-07-27T19:47:48.969Z,18.10
2022-07-27T19:50:37.291Z,18.05
2022-07-27T19:53:25.416Z,17.99
2022-07-27T19:56:13.373Z,17.93
2022-07-27T19:59:01.384Z,17.89
2022-07-27T20:01:50.788Z,17.81
2022-07-27T20:04:41.439Z,17.78
2022-07-27T20:07:29.550Z,17.77
2022-07-27T20:10:17.655Z,17.45
2022-07-27T20:13:05.785Z,17.79
2022-07-27T20:15:53.818Z,17.90
2022-07-27T20:18:43.192Z,17.94
2022-07-27T20:21:33.542Z,17.99
2022-07-27T20:24:21.598Z,17.98
2022-07-27T20:27:09.599Z,18.04
2022-07-27T20:30:00.097Z,18.13
2022-07-27T20:32:49.053Z,18.05
2022-07-27T20:35:38.438Z,18.01
2022-07-27T20:38:26.428Z,17.96
2022-07-27T20:41:14.491Z,18.02
2022-07-27T20:44:02.729Z,18.04
2022-07-27T20:46:50.666Z,18.04
2022-07-27T20:49:39.022Z,18.03
2022-07-27T20:52:28.369Z,17.99
2022-07-27T20:55:16.377Z,17.36
2022-07-27T20:58:04.393Z,17.97
2022-07-27T21:00:52.718Z,17.99
2022-07-27T21:03:40.777Z,18.10
2022-07-27T21:06:28.794Z,18.14
2022-07-27T21:09:18.171Z,18.11
2022-07-27T21:12:07.006Z,18.21
2022-07-27T21:14:55.160Z,18.20
2022-07-27T21:17:43.702Z,18.30
2022-07-27T21:20:31.689Z,18.25
2022-07-27T21:23:37.386Z,18.32
2022-07-27T21:26:26.747Z,18.38
2022-07-27T21:29:15.241Z,18.50
2022-07-27T21:32:03.517Z,18.67
2022-07-27T21:34:51.552Z,18.72
2022-07-27T21:37:39.544Z,18.73
2022-07-27T21:40:27.504Z,18.72
2022-07-27T21:43:16.844Z,18.79
2022-07-27T21:46:04.907Z,18.79
2022-07-27T21:48:53.170Z,18.72
2022-07-27T21:51:41.310Z,18.72
2022-07-27T21:54:29.320Z,18.68
2022-07-27T21:57:17.542Z,18.72
2022-07-27T22:00:08.743Z,18.73
2022-07-27T22:02:57.557Z,18.71
2022-07-27T22:05:45.587Z,18.80
2022-07-27T22:08:34.038Z,18.21
2022-07-27T22:11:22.058Z,18.66
2022-07-27T22:14:10.346Z,18.75
2022-07-27T22:17:03.062Z,18.71
2022-07-27T22:19:51.171Z,18.76
2022-07-27T22:22:39.395Z,18.68
2022-07-27T22:25:27.440Z,18.64
2022-07-27T22:28:15.721Z,18.67
2022-07-27T22:31:21.738Z,18.60
2022-07-27T22:34:12.809Z,18.54
2022-07-27T22:37:01.079Z,18.49
2022-07-27T22:39:49.032Z,18.48
2022-07-27T22:42:37.046Z,18.46
2022-07-27T22:45:25.381Z,18.48
2022-07-27T22:48:13.346Z,18.44
2022-07-27T22:51:02.961Z,18.47
2022-07-27T22:53:50.973Z,18.41
2022-07-27T22:56:38.944Z,18.41
2022-07-27T22:59:27.392Z,18.40
2022-07-27T23:02:15.374Z,18.43
2022-07-27T23:05:03.424Z,18.38
2022-07-27T23:07:52.833Z,18.35
2022-07-27T23:10:46.829Z,18.29
2022-07-27T23:13:34.920Z,18.27
2022-07-27T23:16:23.080Z,18.32
2022-07-27T23:19:11.651Z,18.27
2022-07-27T23:22:01.451Z,18.20
2022-07-27T23:24:51.172Z,18.20
2022-07-27T23:27:39.301Z,18.17
2022-07-27T23:30:27.561Z,17.96
2022-07-27T23:33:15.564Z,18.10
2022-07-27T23:36:06.007Z,18.11
2022-07-27T23:38:54.018Z,18.06
2022-07-27T23:41:47.899Z,18.04
2022-07-27T23:44:37.703Z,18.10
2022-07-27T23:47:25.681Z,18.10
2022-07-27T23:50:13.727Z,18.14
2022-07-27T23:53:03.724Z,18.16
2022-07-27T23:55:54.211Z,18.08
2022-07-27T23:58:43.581Z,18.05
